Time;durP1;ratioP1;P1;durP2;ratioP2;P2;SDS_P1;SDS_P2;PMS_P1;PMS_P2;Temp;Humidity;BMP_temperature;BMP_pressure;BME280_temperature;BME280_humidity;BME280_pressure;Samples;Min_cycle;Max_cycle;Signal;HPM_P1;HPM_P2
2022/06/26 00:00:44;;;;;;;;;;;20.00;75.60;;;;;;5137857;27;19983;-30
2022/06/26 00:03:10;;;;;;;;;;;20.00;75.40;;;;;;5137607;27;19949;-31
2022/06/26 00:05:35;;;;;;;;;;;19.90;75.30;;;;;;5136665;27;20354;-30
2022/06/26 00:08:02;;;;;;;;;;;20.00;75.30;;;;;;5137668;27;20378;-29
2022/06/26 00:10:27;;;;;;;;;;;20.00;75.20;;;;;;5137610;27;19904;-29
2022/06/26 00:12:53;;;;;;;;;;;20.00;75.20;;;;;;5137531;27;19903;-28
2022/06/26 00:15:18;;;;;;;;;;;20.00;75.30;;;;;;5137856;27;20002;-29
2022/06/26 00:17:44;;;;;;;;;;;19.90;75.20;;;;;;5137388;27;20278;-29
2022/06/26 00:20:09;;;;;;;;;;;19.90;75.20;;;;;;5137393;27;19903;-29
2022/06/26 00:22:35;;;;;;;;;;;19.90;75.40;;;;;;5136094;27;19904;-29
2022/06/26 00:25:01;;;;;;;;;;;19.90;75.40;;;;;;5137661;27;19907;-29
2022/06/26 00:27:26;;;;;;;;;;;19.90;75.40;;;;;;5137720;27;19911;-32
2022/06/26 00:29:52;;;;;;;;;;;19.90;75.40;;;;;;5137312;27;19903;-29
2022/06/26 00:32:17;;;;;;;;;;;20.00;75.60;;;;;;5137631;27;19960;-30
2022/06/26 00:34:43;;;;;;;;;;;19.90;75.60;;;;;;5137393;27;19903;-30
2022/06/26 00:37:08;;;;;;;;;;;19.90;75.60;;;;;;5137367;27;19904;-29
2022/06/26 00:39:34;;;;;;;;;;;19.90;75.60;;;;;;5137108;27;19903;-29
2022/06/26 00:41:59;;;;;;;;;;;19.90;75.60;;;;;;5137281;27;19904;-27
2022/06/26 00:44:25;;;;;;;;;;;19.90;75.80;;;;;;5136883;27;19926;-28
2022/06/26 00:46:51;;;;;;;;;;;19.80;75.80;;;;;;5137227;27;19910;-28
2022/06/26 00:49:17;;;;;;;;;;;19.80;75.80;;;;;;5136943;27;19996;-28
2022/06/26 00:51:53;;;;;;;;;;;19.80;76.10;;;;;;5136913;27;20007;-29
2022/06/26 00:54:20;;;;;;;;;;;19.80;76.20;;;;;;5137036;27;19939;-28
2022/06/26 00:56:45;;;;;;;;;;;19.80;76.40;;;;;;5136993;27;19904;-28
2022/06/26 00:59:11;;;;;;;;;;;19.80;76.20;;;;;;5136854;27;19926;-27
2022/06/26 01:01:37;;;;;;;;;;;19.70;76.30;;;;;;5136518;27;19903;-27
2022/06/26 01:04:03;;;;;;;;;;;19.70;76.30;;;;;;5136681;27;19917;-28
2022/06/26 01:06:30;;;;;;;;;;;19.70;76.50;;;;;;5136668;27;19934;-30
2022/06/26 01:08:56;;;;;;;;;;;19.70;76.60;;;;;;5136612;27;20362;-27
2022/06/26 01:11:24;;;;;;;;;;;19.70;76.70;;;;;;5136691;27;19910;-29
2022/06/26 01:13:52;;;;;;;;;;;19.70;76.60;;;;;;5136484;27;20011;-28
2022/06/26 01:16:19;;;;;;;;;;;19.70;76.60;;;;;;5136877;27;19914;-27
2022/06/26 01:18:45;;;;;;;;;;;19.70;76.60;;;;;;5136684;27;20282;-29
2022/06/26 01:21:11;;;;;;;;;;;19.60;76.50;;;;;;5136606;27;19907;-29
2022/06/26 01:23:36;;;;;;;;;;;19.70;76.50;;;;;;5136296;27;19904;-29
2022/06/26 01:26:02;;;;;;;;;;;19.70;76.40;;;;;;5137182;27;19907;-28
2022/06/26 01:28:27;;;;;;;;;;;19.70;76.50;;;;;;5136317;27;20293;-28
2022/06/26 01:30:53;;;;;;;;;;;19.70;76.50;;;;;;5136085;27;20274;-27
2022/06/26 01:33:18;;;;;;;;;;;19.80;76.60;;;;;;5136274;27;19998;-28
2022/06/26 01:35:44;;;;;;;;;;;19.80;76.60;;;;;;5136404;27;19911;-27
2022/06/26 01:38:14;;;;;;;;;;;19.80;76.60;;;;;;5136357;27;20311;-26
2022/06/26 01:40:40;;;;;;;;;;;19.80;76.70;;;;;;5135912;27;19903;-28
2022/06/26 01:43:05;;;;;;;;;;;19.80;76.90;;;;;;5136065;27;19907;-32
2022/06/26 01:45:31;;;;;;;;;;;19.70;77.20;;;;;;5135865;27;20059;-27
2022/06/26 01:47:56;;;;;;;;;;;19.70;77.20;;;;;;5135844;27;20325;-27
2022/06/26 01:50:22;;;;;;;;;;;19.70;77.30;;;;;;5135996;27;19903;-31
2022/06/26 01:52:47;;;;;;;;;;;19.60;77.50;;;;;;5135993;27;19930;-30
2022/06/26 01:55:13;;;;;;;;;;;19.60;77.70;;;;;;5135710;27;19903;-28
2022/06/26 01:57:38;;;;;;;;;;;19.60;77.70;;;;;;5135593;27;19910;-31
2022/06/26 02:00:05;;;;;;;;;;;19.60;77.80;;;;;;5135808;27;19907;-28
2022/06/26 02:02:30;;;;;;;;;;;19.50;78.00;;;;;;5135445;27;20007;-27
2022/06/26 02:04:57;;;;;;;;;;;19.50;77.80;;;;;;5135862;27;20018;-28
2022/06/26 02:07:22;;;;;;;;;;;19.50;77.90;;;;;;5135965;27;19954;-27
2022/06/26 02:15:16;;;;;;;;;;;19.40;78.10;;;;;;5135474;27;19971;-29
2022/06/26 02:17:41;;;;;;;;;;;19.40;78.10;;;;;;5135161;27;19907;-30
2022/06/26 02:20:08;;;;;;;;;;;19.40;78.20;;;;;;5133900;27;19917;-28
2022/06/26 02:22:34;;;;;;;;;;;19.30;78.40;;;;;;5135106;27;19907;-28
2022/06/26 02:25:00;;;;;;;;;;;19.20;78.50;;;;;;5135020;27;20018;-27
2022/06/26 02:27:26;;;;;;;;;;;19.20;78.50;;;;;;5133932;27;19947;-28
2022/06/26 02:29:51;;;;;;;;;;;19.20;78.50;;;;;;5135047;27;19913;-28
2022/06/26 02:32:17;;;;;;;;;;;19.20;78.50;;;;;;5134856;27;19914;-28
2022/06/26 02:34:42;;;;;;;;;;;19.20;78.50;;;;;;5134894;27;20282;-28
2022/06/26 02:37:08;;;;;;;;;;;19.20;78.50;;;;;;5134863;27;20002;-29
2022/06/26 02:39:33;;;;;;;;;;;19.20;78.50;;;;;;5134832;27;20431;-28
2022/06/26 02:41:59;;;;;;;;;;;19.20;78.50;;;;;;5134962;27;19936;-31
2022/06/26 02:44:24;;;;;;;;;;;19.20;78.50;;;;;;5135429;27;19914;-28
2022/06/26 02:46:50;;;;;;;;;;;19.10;78.60;;;;;;5134678;27;19911;-28
2022/06/26 02:49:16;;;;;;;;;;;19.10;78.80;;;;;;5135004;27;19929;-28
2022/06/26 02:51:41;;;;;;;;;;;19.00;78.90;;;;;;5134582;27;19915;-31
2022/06/26 02:54:08;;;;;;;;;;;19.00;78.90;;;;;;5133640;27;19907;-28
2022/06/26 02:56:34;;;;;;;;;;;19.00;79.10;;;;;;5134867;27;19942;-29
2022/06/26 02:59:00;;;;;;;;;;;18.90;79.10;;;;;;5134941;27;20343;-28
2022/06/26 03:01:25;;;;;;;;;;;18.90;79.30;;;;;;5135656;27;19913;-27
2022/06/26 03:03:51;;;;;;;;;;;18.90;79.40;;;;;;5134361;27;20384;-28
2022/06/26 03:06:16;;;;;;;;;;;18.90;79.50;;;;;;5134447;27;19965;-28
2022/06/26 03:08:42;;;;;;;;;;;18.80;79.50;;;;;;5134479;27;19930;-27
2022/06/26 03:11:07;;;;;;;;;;;18.90;79.80;;;;;;5134884;27;19911;-33
2022/06/26 03:13:33;;;;;;;;;;;18.80;79.70;;;;;;5134744;27;20315;-29
2022/06/26 03:15:58;;;;;;;;;;;18.80;79.60;;;;;;5134684;27;19911;-28
2022/06/26 03:18:24;;;;;;;;;;;18.90;79.60;;;;;;5134358;27;19976;-29
2022/06/26 03:20:49;;;;;;;;;;;18.90;79.60;;;;;;5134210;27;19913;-29
2022/06/26 03:23:15;;;;;;;;;;;18.90;79.50;;;;;;5135318;27;20385;-28
2022/06/26 03:25:40;;;;;;;;;;;18.90;80.00;;;;;;5138451;27;19977;-27
2022/06/26 03:28:06;;;;;;;;;;;18.90;79.80;;;;;;5138565;27;20007;-27
2022/06/26 03:30:31;;;;;;;;;;;18.90;79.80;;;;;;5138456;27;19930;-28
2022/06/26 03:32:57;;;;;;;;;;;18.80;80.30;;;;;;5138625;27;19908;-30
2022/06/26 03:35:22;;;;;;;;;;;18.80;80.40;;;;;;5138999;27;20290;-28
2022/06/26 03:37:48;;;;;;;;;;;18.70;80.30;;;;;;5138337;27;19911;-29
2022/06/26 03:40:14;;;;;;;;;;;18.70;80.20;;;;;;5138748;27;19951;-29
2022/06/26 03:42:39;;;;;;;;;;;18.80;80.40;;;;;;5138186;27;19915;-29
2022/06/26 03:45:05;;;;;;;;;;;18.80;80.30;;;;;;5138479;27;19915;-28
2022/06/26 03:47:31;;;;;;;;;;;18.80;80.20;;;;;;5138320;27;19950;-28
2022/06/26 03:49:56;;;;;;;;;;;18.80;80.40;;;;;;5138114;27;20286;-30
2022/06/26 03:52:23;;;;;;;;;;;18.80;80.40;;;;;;5138051;27;20385;-28
2022/06/26 03:54:48;;;;;;;;;;;18.80;80.30;;;;;;5138743;27;20262;-28
2022/06/26 03:57:14;;;;;;;;;;;18.80;80.20;;;;;;5137957;27;19913;-28
2022/06/26 03:59:39;;;;;;;;;;;18.80;80.20;;;;;;5137888;27;20340;-28
2022/06/26 04:02:05;;;;;;;;;;;18.70;80.90;;;;;;5138000;27;20323;-28
2022/06/26 04:04:30;;;;;;;;;;;18.80;80.40;;;;;;5137797;27;19964;-28
2022/06/26 04:06:56;;;;;;;;;;;18.70;80.20;;;;;;5137773;27;20362;-30
2022/06/26 04:09:21;;;;;;;;;;;18.80;80.40;;;;;;5137752;27;20363;-28
2022/06/26 04:11:47;;;;;;;;;;;18.80;80.60;;;;;;5137682;27;19938;-28
2022/06/26 04:14:13;;;;;;;;;;;18.70;80.60;;;;;;5137661;27;19907;-28
2022/06/26 04:16:38;;;;;;;;;;;18.70;80.40;;;;;;5137588;27;20398;-29
2022/06/26 04:19:04;;;;;;;;;;;18.70;80.40;;;;;;5137846;27;19929;-29
2022/06/26 04:21:29;;;;;;;;;;;18.70;80.50;;;;;;5137781;27;20350;-30
2022/06/26 04:23:54;;;;;;;;;;;18.70;80.40;;;;;;5137754;27;19929;-29
2022/06/26 04:26:20;;;;;;;;;;;18.70;80.40;;;;;;5137335;27;20282;-28
2022/06/26 04:28:45;;;;;;;;;;;18.60;80.20;;;;;;5137624;27;19907;-29
2022/06/26 04:31:11;;;;;;;;;;;18.70;80.20;;;;;;5137404;27;19907;-27
2022/06/26 04:33:36;;;;;;;;;;;18.60;80.30;;;;;;5137149;27;19964;-27
2022/06/26 04:36:02;;;;;;;;;;;18.60;80.40;;;;;;5136414;27;19941;-28
2022/06/26 04:38:27;;;;;;;;;;;18.50;80.40;;;;;;5137519;27;19919;-27
2022/06/26 04:40:53;;;;;;;;;;;18.50;80.40;;;;;;5135766;27;19935;-30
2022/06/26 04:43:19;;;;;;;;;;;18.40;80.30;;;;;;5137053;27;19960;-27
2022/06/26 04:45:44;;;;;;;;;;;18.40;80.40;;;;;;5137206;27;19915;-27
2022/06/26 04:48:10;;;;;;;;;;;18.40;80.40;;;;;;5137229;27;19908;-28
2022/06/26 04:50:35;;;;;;;;;;;18.30;80.40;;;;;;5137177;27;19914;-29
2022/06/26 04:53:01;;;;;;;;;;;18.30;80.40;;;;;;5137179;27;20274;-27
2022/06/26 04:55:26;;;;;;;;;;;18.20;80.40;;;;;;5137164;27;19914;-28
2022/06/26 04:57:52;;;;;;;;;;;18.30;80.40;;;;;;5136811;27;19918;-27
2022/06/26 05:00:17;;;;;;;;;;;18.30;81.00;;;;;;5137123;27;19911;-28
2022/06/26 05:02:43;;;;;;;;;;;18.30;80.40;;;;;;5136741;27;19911;-31
2022/06/26 05:05:09;;;;;;;;;;;18.30;80.30;;;;;;5136847;27;20056;-28
2022/06/26 05:07:34;;;;;;;;;;;18.30;80.20;;;;;;5136866;27;19946;-28
2022/06/26 05:10:00;;;;;;;;;;;18.30;80.20;;;;;;5136524;27;19908;-30
2022/06/26 05:12:26;;;;;;;;;;;18.40;80.20;;;;;;5136624;27;19998;-27
2022/06/26 05:14:52;;;;;;;;;;;18.40;80.20;;;;;;5136547;27;19907;-28
2022/06/26 05:17:17;;;;;;;;;;;18.40;80.10;;;;;;5136450;27;20398;-28
2022/06/26 05:19:43;;;;;;;;;;;18.40;80.00;;;;;;5136661;27;19907;-28
2022/06/26 05:22:08;;;;;;;;;;;18.40;80.00;;;;;;5136838;27;19915;-28
2022/06/26 05:24:34;;;;;;;;;;;18.40;79.90;;;;;;5136147;27;20326;-28
2022/06/26 05:27:00;;;;;;;;;;;18.40;80.00;;;;;;5136589;27;19908;-28
2022/06/26 05:29:26;;;;;;;;;;;18.30;79.90;;;;;;5136261;27;20004;-29
2022/06/26 05:31:51;;;;;;;;;;;18.30;80.00;;;;;;5136528;27;19908;-28
2022/06/26 05:34:17;;;;;;;;;;;18.30;80.00;;;;;;5136064;27;19907;-27
2022/06/26 05:36:42;;;;;;;;;;;18.20;80.00;;;;;;5136047;27;20006;-28
2022/06/26 05:39:08;;;;;;;;;;;18.20;80.00;;;;;;5135977;27;20418;-29
2022/06/26 05:41:34;;;;;;;;;;;18.20;80.00;;;;;;5136314;27;19911;-30
2022/06/26 05:43:59;;;;;;;;;;;18.20;80.00;;;;;;5136391;27;20358;-26
2022/06/26 05:46:25;;;;;;;;;;;18.30;79.90;;;;;;5134385;27;19912;-28
2022/06/26 05:48:51;;;;;;;;;;;18.30;79.80;;;;;;5135667;27;19908;-28
2022/06/26 05:51:16;;;;;;;;;;;18.40;79.70;;;;;;5135713;27;19911;-28
2022/06/26 05:53:42;;;;;;;;;;;18.50;79.50;;;;;;5134500;27;19994;-29
2022/06/26 05:56:07;;;;;;;;;;;18.60;79.50;;;;;;5136108;27;19922;-30
2022/06/26 05:58:33;;;;;;;;;;;18.60;79.30;;;;;;5135539;27;20390;-29
2022/06/26 06:00:58;;;;;;;;;;;18.70;79.10;;;;;;5135696;27;19911;-27
2022/06/26 06:03:24;;;;;;;;;;;18.70;78.90;;;;;;5135367;27;19911;-28
2022/06/26 06:05:49;;;;;;;;;;;18.70;78.90;;;;;;5135607;27;19922;-28
2022/06/26 06:08:14;;;;;;;;;;;18.70;78.90;;;;;;5135422;27;19972;-29
2022/06/26 06:10:40;;;;;;;;;;;18.80;79.00;;;;;;5135259;27;19955;-28
2022/06/26 06:13:05;;;;;;;;;;;18.80;79.00;;;;;;5135804;27;19955;-28
2022/06/26 06:15:31;;;;;;;;;;;18.80;78.90;;;;;;5135338;27;19907;-28
2022/06/26 06:17:57;;;;;;;;;;;18.80;78.80;;;;;;5135517;27;19907;-28
2022/06/26 06:20:25;;;;;;;;;;;18.80;78.60;;;;;;5135192;27;19907;-29
2022/06/26 06:22:54;;;;;;;;;;;18.80;78.50;;;;;;5135134;27;20362;-28
2022/06/26 06:25:21;;;;;;;;;;;18.90;78.60;;;;;;5135214;27;20385;-26
2022/06/26 06:27:46;;;;;;;;;;;18.80;78.40;;;;;;5135352;27;19907;-32
2022/06/26 06:30:12;;;;;;;;;;;18.80;78.50;;;;;;5135086;27;20282;-29
2022/06/26 06:32:37;;;;;;;;;;;18.80;78.50;;;;;;5134920;27;19921;-28
2022/06/26 06:35:03;;;;;;;;;;;18.80;78.30;;;;;;5135177;27;19914;-28
2022/06/26 06:37:29;;;;;;;;;;;18.80;78.30;;;;;;5134917;27;20448;-27
2022/06/26 06:39:54;;;;;;;;;;;18.90;78.90;;;;;;5135417;27;19907;-27
2022/06/26 06:42:20;;;;;;;;;;;18.90;78.20;;;;;;5134880;27;19908;-29
2022/06/26 06:44:45;;;;;;;;;;;18.90;78.00;;;;;;5135091;27;20337;-27
2022/06/26 06:47:12;;;;;;;;;;;19.00;77.90;;;;;;5135133;27;19907;-28
2022/06/26 06:49:38;;;;;;;;;;;19.10;77.70;;;;;;5134818;27;19956;-30
2022/06/26 06:52:04;;;;;;;;;;;19.10;77.50;;;;;;5134850;27;19907;-28
2022/06/26 06:54:29;;;;;;;;;;;19.10;77.40;;;;;;5134730;27;19908;-29
2022/06/26 06:56:55;;;;;;;;;;;19.10;77.40;;;;;;5134680;27;19929;-29
2022/06/26 06:59:20;;;;;;;;;;;19.10;77.40;;;;;;5134150;27;19907;-32
2022/06/26 07:01:46;;;;;;;;;;;19.10;77.40;;;;;;5134670;27;19907;-29
2022/06/26 07:04:12;;;;;;;;;;;19.10;77.20;;;;;;5133171;27;19911;-29
2022/06/26 07:06:37;;;;;;;;;;;19.20;77.20;;;;;;5134545;27;19930;-30
2022/06/26 07:09:03;;;;;;;;;;;19.20;77.00;;;;;;5134800;27;19907;-31
2022/06/26 07:11:28;;;;;;;;;;;19.30;76.70;;;;;;5134880;27;20263;-32
2022/06/26 07:13:54;;;;;;;;;;;19.30;76.40;;;;;;5134402;27;19913;-29
2022/06/26 07:16:19;;;;;;;;;;;19.40;76.30;;;;;;5134487;27;20019;-34
2022/06/26 07:18:45;;;;;;;;;;;19.50;76.20;;;;;;5134656;27;20457;-31
2022/06/26 07:21:11;;;;;;;;;;;19.60;76.00;;;;;;5133091;28;19953;-30
2022/06/26 07:23:36;;;;;;;;;;;19.70;75.90;;;;;;5134850;27;19992;-28
2022/06/26 07:26:02;;;;;;;;;;;19.70;75.70;;;;;;5134854;27;19962;-28
2022/06/26 07:28:27;;;;;;;;;;;19.80;75.60;;;;;;5135088;27;19921;-29
2022/06/26 07:30:53;;;;;;;;;;;19.80;75.50;;;;;;5134590;27;19907;-29
2022/06/26 07:36:03;;;;;;;;;;;19.90;75.30;;;;;;5134787;28;19930;-29
2022/06/26 07:38:28;;;;;;;;;;;20.00;75.10;;;;;;5134812;27;20350;-28
2022/06/26 07:40:54;;;;;;;;;;;20.10;74.60;;;;;;5134542;27;19914;-31
2022/06/26 07:43:19;;;;;;;;;;;20.20;74.40;;;;;;5134502;27;19907;-29
2022/06/26 07:45:45;;;;;;;;;;;20.20;73.80;;;;;;5134200;27;19934;-28
2022/06/26 07:48:10;;;;;;;;;;;20.20;73.50;;;;;;5134174;27;19960;-28
2022/06/26 07:50:36;;;;;;;;;;;20.20;73.10;;;;;;5134046;27;19949;-30
2022/06/26 07:53:01;;;;;;;;;;;20.30;73.20;;;;;;5134015;27;19929;-31
2022/06/26 07:55:27;;;;;;;;;;;20.30;72.80;;;;;;5132671;28;19912;-29
2022/06/26 07:57:52;;;;;;;;;;;20.40;72.80;;;;;;5133893;27;21034;-27
2022/06/26 08:00:18;;;;;;;;;;;20.40;72.70;;;;;;5133891;27;19911;-28
2022/06/26 08:02:43;;;;;;;;;;;20.60;72.60;;;;;;5133791;27;19918;-29
2022/06/26 08:05:09;;;;;;;;;;;20.70;72.10;;;;;;5133837;27;20362;-29
2022/06/26 08:07:34;;;;;;;;;;;20.70;72.20;;;;;;5134103;27;19916;-28
2022/06/26 08:10:00;;;;;;;;;;;20.90;72.00;;;;;;5134689;27;19933;-27
2022/06/26 08:12:25;;;;;;;;;;;21.00;71.60;;;;;;5137743;27;19907;-28
2022/06/26 08:14:51;;;;;;;;;;;21.00;71.00;;;;;;5137549;27;19907;-29
2022/06/26 08:17:16;;;;;;;;;;;21.10;70.70;;;;;;5137521;27;19908;-29
2022/06/26 08:19:42;;;;;;;;;;;21.10;69.60;;;;;;5137947;27;19914;-30
2022/06/26 08:22:07;;;;;;;;;;;21.10;70.10;;;;;;5138090;27;19911;-28
2022/06/26 08:24:33;;;;;;;;;;;21.20;70.10;;;;;;5137511;27;20377;-29
2022/06/26 08:26:59;;;;;;;;;;;21.20;69.70;;;;;;5137755;27;19907;-32
2022/06/26 08:29:25;;;;;;;;;;;21.30;69.70;;;;;;5137285;27;20258;-29
2022/06/26 08:31:51;;;;;;;;;;;21.30;69.70;;;;;;5137279;27;19956;-29
2022/06/26 08:34:16;;;;;;;;;;;21.30;69.20;;;;;;5137210;27;19907;-28
2022/06/26 08:36:42;;;;;;;;;;;21.30;68.80;;;;;;5137210;27;19968;-28
2022/06/26 08:39:07;;;;;;;;;;;21.30;68.70;;;;;;5137232;27;19915;-28
2022/06/26 08:41:38;;;;;;;;;;;21.20;68.90;;;;;;5137388;27;19907;-28
2022/06/26 08:44:03;;;;;;;;;;;21.20;68.70;;;;;;5137267;27;19907;-31
2022/06/26 08:46:30;;;;;;;;;;;21.20;68.90;;;;;;5137030;27;19934;-31
2022/06/26 08:48:57;;;;;;;;;;;21.20;69.10;;;;;;5136916;27;20470;-29
2022/06/26 08:51:23;;;;;;;;;;;21.20;69.00;;;;;;5137148;27;20278;-29
2022/06/26 08:53:51;;;;;;;;;;;21.20;69.10;;;;;;5135824;27;19907;-28
2022/06/26 08:56:17;;;;;;;;;;;21.20;69.10;;;;;;5137139;27;19938;-28
2022/06/26 08:58:42;;;;;;;;;;;21.30;68.90;;;;;;5136724;27;19907;-33
2022/06/26 09:01:08;;;;;;;;;;;21.40;69.00;;;;;;5136676;27;19919;-27
2022/06/26 09:03:34;;;;;;;;;;;21.50;68.90;;;;;;5136526;27;19919;-28
2022/06/26 09:06:01;;;;;;;;;;;21.60;68.90;;;;;;5136509;27;19923;-29
2022/06/26 09:08:29;;;;;;;;;;;21.70;68.60;;;;;;5136534;27;19994;-28
2022/06/26 09:10:54;;;;;;;;;;;21.70;68.10;;;;;;5136640;27;19922;-28
2022/06/26 09:13:20;;;;;;;;;;;21.80;68.30;;;;;;5136519;27;19907;-29
2022/06/26 09:15:45;;;;;;;;;;;21.80;68.40;;;;;;5136373;27;19942;-29
2022/06/26 09:18:11;;;;;;;;;;;21.90;68.20;;;;;;5136323;27;19907;-31
2022/06/26 09:20:48;;;;;;;;;;;22.00;68.00;;;;;;5135777;27;20389;-29
2022/06/26 09:23:15;;;;;;;;;;;22.10;68.50;;;;;;5136367;27;19930;-29
2022/06/26 09:25:44;;;;;;;;;;;22.10;67.80;;;;;;5136406;27;20358;-29
2022/06/26 09:28:13;;;;;;;;;;;22.20;67.40;;;;;;5136439;27;19947;-31
2022/06/26 09:31:06;;;;;;;;;;;22.20;67.40;;;;;;5136783;27;19929;-29
2022/06/26 09:33:33;;;;;;;;;;;22.20;66.50;;;;;;5132265;27;19998;-29
2022/06/26 09:36:00;;;;;;;;;;;22.10;67.00;;;;;;5136237;27;19919;-31
2022/06/26 09:38:32;;;;;;;;;;;22.20;67.10;;;;;;5134529;27;19908;-30
2022/06/26 09:40:59;;;;;;;;;;;22.20;67.10;;;;;;5136008;27;19946;-29
2022/06/26 09:43:36;;;;;;;;;;;22.30;67.20;;;;;;5135759;27;19922;-29
2022/06/26 09:46:06;;;;;;;;;;;22.30;66.90;;;;;;5135692;27;19941;-29
2022/06/26 09:48:31;;;;;;;;;;;22.30;66.90;;;;;;5135700;27;20358;-28
2022/06/26 09:50:57;;;;;;;;;;;22.30;66.70;;;;;;5135596;27;19914;-29
2022/06/26 09:53:23;;;;;;;;;;;22.30;66.90;;;;;;5135590;27;19907;-28
2022/06/26 09:55:50;;;;;;;;;;;22.40;66.80;;;;;;5136504;27;19982;-31
2022/06/26 09:58:16;;;;;;;;;;;22.40;66.40;;;;;;5135855;27;20339;-28
2022/06/26 10:00:41;;;;;;;;;;;22.30;66.40;;;;;;5135606;27;19911;-29
2022/06/26 10:08:38;;;;;;;;;;;22.20;65.80;;;;;;5135215;27;19910;-30
2022/06/26 10:11:04;;;;;;;;;;;22.20;65.50;;;;;;5135517;27;19903;-44
2022/06/26 10:13:33;;;;;;;;;;;22.20;65.60;;;;;;5135182;27;19904;-44
2022/06/26 10:16:01;;;;;;;;;;;22.20;65.40;;;;;;5133621;27;19990;-44
2022/06/26 10:18:37;;;;;;;;;;;22.30;65.20;;;;;;5135291;27;20366;-44
2022/06/26 10:21:08;;;;;;;;;;;22.30;65.20;;;;;;5135600;27;19904;-44
2022/06/26 10:23:35;;;;;;;;;;;22.40;65.00;;;;;;5135668;27;19961;-43
2022/06/26 10:26:10;;;;;;;;;;;22.50;65.10;;;;;;5134903;27;19911;-44
2022/06/26 10:28:35;;;;;;;;;;;22.50;65.00;;;;;;5135005;27;19903;-44
2022/06/26 10:31:07;;;;;;;;;;;22.50;64.60;;;;;;5134720;27;20289;-45
2022/06/26 10:33:33;;;;;;;;;;;22.50;65.00;;;;;;5132776;27;19990;-45
2022/06/26 10:35:58;;;;;;;;;;;22.50;65.10;;;;;;5135572;27;19943;-45
2022/06/26 10:38:25;;;;;;;;;;;22.50;65.00;;;;;;5133886;27;19961;-44
2022/06/26 10:44:02;;;;;;;;;;;22.50;65.20;;;;;;5135365;27;19954;-44
2022/06/26 10:46:44;;;;;;;;;;;22.50;65.20;;;;;;5134452;27;19907;-44
2022/06/26 10:49:10;;;;;;;;;;;22.60;65.30;;;;;;5135007;27;19933;-43
2022/06/26 10:51:38;;;;;;;;;;;22.60;65.00;;;;;;5134867;27;19910;-43
2022/06/26 10:54:03;;;;;;;;;;;22.60;65.10;;;;;;5133258;27;20280;-44
2022/06/26 10:56:29;;;;;;;;;;;22.60;65.00;;;;;;5134641;27;19946;-44
2022/06/26 10:58:59;;;;;;;;;;;22.60;64.80;;;;;;5134806;27;20279;-44
2022/06/26 11:01:25;;;;;;;;;;;22.70;64.40;;;;;;5134778;27;19911;-42
2022/06/26 11:03:51;;;;;;;;;;;22.80;64.60;;;;;;5134372;27;20370;-43
2022/06/26 11:06:17;;;;;;;;;;;22.90;64.40;;;;;;5134081;27;19919;-43
2022/06/26 11:08:44;;;;;;;;;;;23.00;64.40;;;;;;5134617;27;19903;-45
2022/06/26 11:11:14;;;;;;;;;;;23.10;64.20;;;;;;5134703;27;20211;-43
2022/06/26 11:13:49;;;;;;;;;;;23.20;64.10;;;;;;5134332;27;19903;-43
2022/06/26 11:16:14;;;;;;;;;;;23.30;63.80;;;;;;5134358;27;20002;-44
2022/06/26 11:18:40;;;;;;;;;;;23.40;63.80;;;;;;5134246;27;20392;-43
2022/06/26 11:21:05;;;;;;;;;;;23.40;63.60;;;;;;5132948;28;19912;-44
2022/06/26 11:23:35;;;;;;;;;;;23.40;63.60;;;;;;5134650;27;19911;-43
2022/06/26 11:26:02;;;;;;;;;;;23.40;63.40;;;;;;5134520;27;19908;-44
2022/06/26 11:28:29;;;;;;;;;;;23.30;63.40;;;;;;5134235;27;19947;-44
2022/06/26 11:30:55;;;;;;;;;;;23.30;63.50;;;;;;5134242;27;20344;-44
2022/06/26 11:33:22;;;;;;;;;;;23.30;63.50;;;;;;5134431;27;20282;-44
2022/06/26 11:35:47;;;;;;;;;;;23.30;63.10;;;;;;5134285;27;19994;-44
2022/06/26 11:38:14;;;;;;;;;;;23.30;63.10;;;;;;5134570;27;19947;-44
2022/06/26 11:40:41;;;;;;;;;;;23.40;63.00;;;;;;5134045;27;19909;-44
2022/06/26 11:43:06;;;;;;;;;;;23.40;62.90;;;;;;5134101;27;19907;-45
2022/06/26 11:45:32;;;;;;;;;;;23.40;62.70;;;;;;5137499;27;20369;-44
2022/06/26 11:48:01;;;;;;;;;;;23.30;62.80;;;;;;5138113;27;20375;-45
2022/06/26 11:50:31;;;;;;;;;;;23.30;62.70;;;;;;5138256;27;20309;-44
2022/06/26 11:52:57;;;;;;;;;;;23.30;62.90;;;;;;5137979;27;19998;-44
2022/06/26 11:55:23;;;;;;;;;;;23.20;63.00;;;;;;5138208;27;19931;-45
2022/06/26 11:57:49;;;;;;;;;;;23.20;63.10;;;;;;5138012;27;19904;-44
2022/06/26 12:00:21;;;;;;;;;;;23.20;63.30;;;;;;5138328;27;20041;-44
2022/06/26 12:02:48;;;;;;;;;;;23.10;63.30;;;;;;5137767;27;19911;-44
2022/06/26 12:05:18;;;;;;;;;;;23.00;63.50;;;;;;5138020;27;19915;-44
2022/06/26 12:07:48;;;;;;;;;;;23.00;63.80;;;;;;5137757;27;19977;-44
2022/06/26 12:10:24;;;;;;;;;;;22.90;64.00;;;;;;5137827;27;19903;-45
2022/06/26 12:12:50;;;;;;;;;;;22.90;64.00;;;;;;5137613;27;19903;-45
2022/06/26 12:15:15;;;;;;;;;;;22.80;64.30;;;;;;5138041;27;19904;-44
2022/06/26 12:17:42;;;;;;;;;;;22.70;64.50;;;;;;5137551;27;19910;-45
2022/06/26 12:20:08;;;;;;;;;;;22.70;64.70;;;;;;5138145;27;19910;-45
2022/06/26 12:22:34;;;;;;;;;;;22.70;64.60;;;;;;5137714;27;20373;-44
2022/06/26 12:25:00;;;;;;;;;;;22.60;64.70;;;;;;5137767;27;20290;-44
2022/06/26 12:27:39;;;;;;;;;;;22.50;64.80;;;;;;5136147;27;19910;-44
2022/06/26 12:30:14;;;;;;;;;;;22.50;65.00;;;;;;5137640;27;19907;-44
2022/06/26 12:32:40;;;;;;;;;;;22.40;65.10;;;;;;5137385;27;20001;-44
2022/06/26 12:35:05;;;;;;;;;;;22.30;65.30;;;;;;5137746;27;20322;-43
2022/06/26 12:37:31;;;;;;;;;;;22.20;65.40;;;;;;5137241;27;19903;-43
2022/06/26 12:39:56;;;;;;;;;;;22.10;65.50;;;;;;5137170;27;19907;-44
2022/06/26 12:42:22;;;;;;;;;;;22.10;65.70;;;;;;5137206;27;19992;-44
2022/06/26 12:44:47;;;;;;;;;;;22.00;65.70;;;;;;5137007;27;19908;-44
2022/06/26 12:47:13;;;;;;;;;;;22.00;65.60;;;;;;5137318;27;19904;-44
2022/06/26 12:49:38;;;;;;;;;;;22.00;65.50;;;;;;5137500;27;19945;-44
2022/06/26 12:52:05;;;;;;;;;;;21.90;65.20;;;;;;5136903;27;19999;-43
2022/06/26 12:54:30;;;;;;;;;;;21.90;65.30;;;;;;5137093;27;19910;-44
2022/06/26 12:56:56;;;;;;;;;;;21.90;65.30;;;;;;5136178;27;20347;-44
2022/06/26 12:59:21;;;;;;;;;;;21.80;65.30;;;;;;5137248;27;20385;-43
2022/06/26 13:01:47;;;;;;;;;;;21.70;65.50;;;;;;5135487;27;20330;-46
2022/06/26 13:04:12;;;;;;;;;;;21.70;65.50;;;;;;5136571;27;19911;-44
2022/06/26 13:06:38;;;;;;;;;;;21.70;65.70;;;;;;5136661;27;19915;-44
2022/06/26 13:09:03;;;;;;;;;;;21.80;65.70;;;;;;5136773;27;19985;-44
2022/06/26 13:11:29;;;;;;;;;;;21.80;65.60;;;;;;5136810;27;19998;-44
2022/06/26 13:13:55;;;;;;;;;;;21.90;65.50;;;;;;5136703;27;19903;-44
2022/06/26 13:16:20;;;;;;;;;;;22.00;65.50;;;;;;5136299;27;20255;-43
2022/06/26 13:18:46;;;;;;;;;;;22.00;65.50;;;;;;5136443;27;19904;-44
2022/06/26 13:21:11;;;;;;;;;;;22.20;65.40;;;;;;5136344;27;19910;-48
2022/06/26 13:23:37;;;;;;;;;;;22.30;65.30;;;;;;5136639;27;20010;-44
2022/06/26 13:26:02;;;;;;;;;;;22.40;65.00;;;;;;5136223;27;19908;-44
2022/06/26 13:28:28;;;;;;;;;;;22.50;64.80;;;;;;5136638;27;19931;-44
2022/06/26 13:30:54;;;;;;;;;;;22.80;64.60;;;;;;5136209;27;19903;-43
2022/06/26 13:33:21;;;;;;;;;;;22.90;64.10;;;;;;5136600;27;19982;-44
2022/06/26 13:35:46;;;;;;;;;;;23.20;63.80;;;;;;5136245;27;20345;-44
2022/06/26 13:38:12;;;;;;;;;;;23.30;63.20;;;;;;5136035;27;19975;-43
2022/06/26 13:40:37;;;;;;;;;;;23.50;63.00;;;;;;5135977;27;19907;-43
2022/06/26 13:43:03;;;;;;;;;;;23.60;62.00;;;;;;5135889;27;20026;-44
2022/06/26 13:45:29;;;;;;;;;;;23.70;61.60;;;;;;5134530;27;20009;-44
2022/06/26 13:47:54;;;;;;;;;;;23.60;61.40;;;;;;5135810;27;20392;-30
2022/06/26 13:50:20;;;;;;;;;;;23.60;60.70;;;;;;5134422;27;19939;-29
2022/06/26 13:52:45;;;;;;;;;;;23.50;61.10;;;;;;5136010;27;19904;-30
2022/06/26 13:55:11;;;;;;;;;;;23.40;61.30;;;;;;5135592;27;19911;-31
2022/06/26 13:57:36;;;;;;;;;;;23.30;61.40;;;;;;5136160;27;19951;-32
2022/06/26 14:00:05;;;;;;;;;;;23.20;61.40;;;;;;5135891;27;19907;-29
2022/06/26 14:02:31;;;;;;;;;;;23.10;61.60;;;;;;5135211;27;19966;-30
2022/06/26 14:04:57;;;;;;;;;;;23.00;61.70;;;;;;5135227;27;19904;-28
2022/06/26 14:07:22;;;;;;;;;;;23.00;61.60;;;;;;5135016;27;19998;-28
2022/06/26 14:09:47;;;;;;;;;;;22.90;61.50;;;;;;5135000;27;20281;-30
2022/06/26 14:12:13;;;;;;;;;;;22.90;61.80;;;;;;5135504;27;19907;-30
2022/06/26 14:14:38;;;;;;;;;;;22.90;61.50;;;;;;5135539;27;19903;-31
2022/06/26 14:17:04;;;;;;;;;;;23.00;61.40;;;;;;5135181;27;19954;-28
2022/06/26 14:19:29;;;;;;;;;;;23.00;61.10;;;;;;5135502;27;20250;-29
2022/06/26 14:27:23;;;;;;;;;;;22.80;61.10;;;;;;5135395;27;20381;-29
2022/06/26 14:29:48;;;;;;;;;;;22.70;60.70;;;;;;5135170;27;19911;-34
2022/06/26 14:32:14;;;;;;;;;;;22.60;61.00;;;;;;5134978;27;19903;-30